Accueil
METAR-TAF:

METAR-TAF

Aéroports :

Base aérienne

Niederstetten, Allemagne

latitude: 49-24N, longitude: 009-58E, altitude: 468 m

Observation

Le bulletin a été fait il y a 1 heure et 15 minutes, à 01:20 UTC
Vent 10 kt de ouest/sud-ouest
Température 13°C
Humidité 94%
Pression 1013 hPa
Visibilité 10 km ou plus
Nuages fragmentés à une hauteur de 300 ft

METAR: ETHN 020120Z 25010KT 9999 BKN003 13/12 Q1013 YLO

Heure: 04:35 (02:35 UTC)


TAF: absent

Observations et prévisions météorologiques de plus de 4000 aéroports (messages METAR et TAF).

Les stations disponibles sont représentées par des disques jaunes et rouges sur la carte.

Passer la souris dessus pour voir le nom de la station.

Cliquer dessus pour voir les observations et prévisions météorologiques.

Pour changer de carte: cliquez sur les boutons verts avec une croix noire pour zoomer, sur le bouton vert avec un tiret pour effectuer un zoom arrière, ou sur les flèches vertes pour les cartes adjacentes.


METAR-TAF: